Airfield :
LOGIN :

Register | Disclaimer

   EN    FR    IT 

 










Legend :    VFR   Marginal VFR   IFR   Intensive IFR   Very Intensive IFR
Visi :
Ceiling :
>= 8 km
>= 3000ft
5 to 8 km
1000 to 3000 ft
1500m to 5 km
500 to 1000 ft
800 to 1500m
200 to 500 ft
< 800m
< 200 ft
Symbols :   Thunderstorms  Fog  Heavy snow  Heavy precipitations  Wind > 20 kt
SIGMETs :     Misc.  Thunderstorms  Icing  Turbulence  Mountain Waves  Volcanic Ashes






- Airport Elevation : 1411 ft
- IATA code : GVA


LSGG - Genève Cointrin

CURRENT METAR :
  • 270050Z AUTO VRB02KT CAVOK M03/M05 Q1020 NOSIG

EXPIRED METARs :
  • 270020Z AUTO VRB02KT CAVOK M02/M04 Q1021 NOSIG
  • 262350Z AUTO 34002KT CAVOK M02/M04 Q1021 NOSIG
  • 262320Z AUTO 35002KT 9999 NSC M02/M04 Q1021 NOSIG
  • 262250Z AUTO VRB01KT 9999 FEW085 M01/M04 Q1022 NOSIG
  • 262220Z 35001KT 9999 BKN090 M01/M04 Q1022 NOSIG

TAF TAF LSGG
Valid from the 27 at 00:00 until the 28 at 06:00 UTC


262325Z 2700/2806 VRB02KT 9999 BKN080 TX03/2723Z TNM02/2706Z TN03/2801Z
PROB40
TEMPO 2706/2710 1500 SN VV009
BECMG 2709/2712 23010KT
TEMPO 2714/2806 4500 RA BKN020
ATIS : +41 22 417 40 81



MET'MAP, your aeronautical weather chart ! - Copyright ORBIFLY December 2007 - Disclaimer

ORBIFLY MET'MAP TEAM :

Programming & Development : Alexandra Zaïnal
Concept & original design : Baudouin d'Aumeries
Assistance for programming : Marc-Olivier Méhu
Technical & hardware support : Manuel Goepfert

Contact : metmap@orbifly.com




SOURCES & CREDITS :

   NOAA